sensor_id;sensor_type;location;lat;lon;timestamp;temperature;humidity
9881;DHT22;4979;51.014;6.678;2022-11-15T00:00:33;9.10;99.90
9881;DHT22;4979;51.014;6.678;2022-11-15T00:02:59;9.00;99.90
9881;DHT22;4979;51.014;6.678;2022-11-15T00:05:25;9.10;99.90
9881;DHT22;4979;51.014;6.678;2022-11-15T00:07:50;9.10;99.90
9881;DHT22;4979;51.014;6.678;2022-11-15T00:10:16;9.20;99.90
9881;DHT22;4979;51.014;6.678;2022-11-15T00:12:41;9.10;99.90
9881;DHT22;4979;51.014;6.678;2022-11-15T00:15:08;9.10;99.90
9881;DHT22;4979;51.014;6.678;2022-11-15T00:17:34;9.10;99.90
9881;DHT22;4979;51.014;6.678;2022-11-15T00:19:59;9.20;99.90
9881;DHT22;4979;51.014;6.678;2022-11-15T00:22:32;9.20;99.90
9881;DHT22;4979;51.014;6.678;2022-11-15T00:24:58;9.20;99.90
9881;DHT22;4979;51.014;6.678;2022-11-15T00:27:24;9.20;99.90
9881;DHT22;4979;51.014;6.678;2022-11-15T00:29:49;9.20;99.90
9881;DHT22;4979;51.014;6.678;2022-11-15T00:32:15;9.30;99.90
9881;DHT22;4979;51.014;6.678;2022-11-15T00:34:40;9.30;99.90
9881;DHT22;4979;51.014;6.678;2022-11-15T00:37:06;9.30;99.90
9881;DHT22;4979;51.014;6.678;2022-11-15T00:39:31;9.30;99.90
9881;DHT22;4979;51.014;6.678;2022-11-15T00:41:57;9.30;99.90
9881;DHT22;4979;51.014;6.678;2022-11-15T00:44:23;9.20;99.90
9881;DHT22;4979;51.014;6.678;2022-11-15T00:46:48;9.30;99.90
9881;DHT22;4979;51.014;6.678;2022-11-15T00:49:14;9.30;99.90
9881;DHT22;4979;51.014;6.678;2022-11-15T00:51:39;9.30;99.90
9881;DHT22;4979;51.014;6.678;2022-11-15T00:54:05;9.30;99.90
9881;DHT22;4979;51.014;6.678;2022-11-15T00:56:30;9.40;99.90
9881;DHT22;4979;51.014;6.678;2022-11-15T00:58:56;9.40;99.90
9881;DHT22;4979;51.014;6.678;2022-11-15T01:01:21;9.50;99.90
9881;DHT22;4979;51.014;6.678;2022-11-15T01:03:47;9.40;99.90
9881;DHT22;4979;51.014;6.678;2022-11-15T01:06:12;9.50;99.90
9881;DHT22;4979;51.014;6.678;2022-11-15T01:08:39;9.40;99.90
9881;DHT22;4979;51.014;6.678;2022-11-15T01:11:09;9.40;99.90
9881;DHT22;4979;51.014;6.678;2022-11-15T01:13:35;9.50;99.90
9881;DHT22;4979;51.014;6.678;2022-11-15T01:16:08;9.50;99.90
9881;DHT22;4979;51.014;6.678;2022-11-15T01:18:34;9.50;99.90
9881;DHT22;4979;51.014;6.678;2022-11-15T01:21:05;9.50;99.90
9881;DHT22;4979;51.014;6.678;2022-11-15T01:23:30;9.60;99.90
9881;DHT22;4979;51.014;6.678;2022-11-15T01:26:00;9.50;99.90
9881;DHT22;4979;51.014;6.678;2022-11-15T01:28:30;9.50;99.90
9881;DHT22;4979;51.014;6.678;2022-11-15T01:30:58;9.60;99.90
9881;DHT22;4979;51.014;6.678;2022-11-15T01:33:24;9.50;99.90
9881;DHT22;4979;51.014;6.678;2022-11-15T01:35:49;9.50;99.90
9881;DHT22;4979;51.014;6.678;2022-11-15T01:38:15;9.50;99.90
9881;DHT22;4979;51.014;6.678;2022-11-15T01:40:40;9.60;99.90
9881;DHT22;4979;51.014;6.678;2022-11-15T01:43:23;9.60;99.90
9881;DHT22;4979;51.014;6.678;2022-11-15T01:46:35;9.60;99.90
9881;DHT22;4979;51.014;6.678;2022-11-15T01:48:40;9.70;99.90
9881;DHT22;4979;51.014;6.678;2022-11-15T01:51:09;9.70;99.90
9881;DHT22;4979;51.014;6.678;2022-11-15T01:53:38;9.70;99.90
9881;DHT22;4979;51.014;6.678;2022-11-15T01:56:06;9.70;99.90
9881;DHT22;4979;51.014;6.678;2022-11-15T01:58:34;9.80;99.90
9881;DHT22;4979;51.014;6.678;2022-11-15T02:01:01;9.70;99.90
9881;DHT22;4979;51.014;6.678;2022-11-15T02:03:34;9.70;99.90
9881;DHT22;4979;51.014;6.678;2022-11-15T02:06:03;9.80;99.90
9881;DHT22;4979;51.014;6.678;2022-11-15T02:08:29;9.80;99.90
9881;DHT22;4979;51.014;6.678;2022-11-15T02:10:55;9.80;99.90
9881;DHT22;4979;51.014;6.678;2022-11-15T02:13:20;9.80;99.90
9881;DHT22;4979;51.014;6.678;2022-11-15T02:16:05;9.90;99.90
9881;DHT22;4979;51.014;6.678;2022-11-15T02:18:37;9.90;99.90
9881;DHT22;4979;51.014;6.678;2022-11-15T02:32:40;9.90;99.90
9881;DHT22;4979;51.014;6.678;2022-11-15T02:35:29;10.00;99.90
9881;DHT22;4979;51.014;6.678;2022-11-15T02:37:59;10.00;99.90
9881;DHT22;4979;51.014;6.678;2022-11-15T02:40:44;9.90;99.90
9881;DHT22;4979;51.014;6.678;2022-11-15T02:43:12;9.90;99.90
9881;DHT22;4979;51.014;6.678;2022-11-15T02:46:41;9.90;99.90
9881;DHT22;4979;51.014;6.678;2022-11-15T02:49:30;10.00;99.90
9881;DHT22;4979;51.014;6.678;2022-11-15T02:51:56;10.00;99.90
9881;DHT22;4979;51.014;6.678;2022-11-15T02:54:25;10.10;99.90
9881;DHT22;4979;51.014;6.678;2022-11-15T02:56:53;10.30;99.90
9881;DHT22;4979;51.014;6.678;2022-11-15T02:59:33;10.50;99.90
9881;DHT22;4979;51.014;6.678;2022-11-15T03:02:17;10.80;99.90
9881;DHT22;4979;51.014;6.678;2022-11-15T03:04:52;10.80;99.90
9881;DHT22;4979;51.014;6.678;2022-11-15T03:13:20;11.20;99.90
9881;DHT22;4979;51.014;6.678;2022-11-15T03:15:59;11.20;99.90
9881;DHT22;4979;51.014;6.678;2022-11-15T03:18:36;11.00;99.90
9881;DHT22;4979;51.014;6.678;2022-11-15T03:21:06;10.90;99.90
9881;DHT22;4979;51.014;6.678;2022-11-15T03:23:33;10.80;99.90
9881;DHT22;4979;51.014;6.678;2022-11-15T03:26:00;10.70;99.90
9881;DHT22;4979;51.014;6.678;2022-11-15T03:28:49;10.60;99.90
9881;DHT22;4979;51.014;6.678;2022-11-15T03:31:17;10.70;99.90
9881;DHT22;4979;51.014;6.678;2022-11-15T03:34:05;10.60;99.90
9881;DHT22;4979;51.014;6.678;2022-11-15T03:36:34;10.60;99.90
9881;DHT22;4979;51.014;6.678;2022-11-15T03:39:02;10.50;99.90
9881;DHT22;4979;51.014;6.678;2022-11-15T03:41:43;10.50;99.90
9881;DHT22;4979;51.014;6.678;2022-11-15T03:44:55;10.60;99.90
9881;DHT22;4979;51.014;6.678;2022-11-15T03:47:20;10.60;99.90
9881;DHT22;4979;51.014;6.678;2022-11-15T03:49:52;10.60;99.90
9881;DHT22;4979;51.014;6.678;2022-11-15T03:52:20;10.60;99.90
9881;DHT22;4979;51.014;6.678;2022-11-15T03:54:54;10.70;99.90
9881;DHT22;4979;51.014;6.678;2022-11-15T03:57:20;10.70;99.90
9881;DHT22;4979;51.014;6.678;2022-11-15T03:59:45;10.70;99.90
9881;DHT22;4979;51.014;6.678;2022-11-15T04:02:11;10.80;99.90
9881;DHT22;4979;51.014;6.678;2022-11-15T04:04:37;10.80;99.90
9881;DHT22;4979;51.014;6.678;2022-11-15T04:07:02;10.90;99.90
9881;DHT22;4979;51.014;6.678;2022-11-15T04:09:28;11.00;99.90
9881;DHT22;4979;51.014;6.678;2022-11-15T04:11:53;11.10;99.90
9881;DHT22;4979;51.014;6.678;2022-11-15T04:14:19;11.10;99.90
9881;DHT22;4979;51.014;6.678;2022-11-15T04:16:45;11.20;99.90
9881;DHT22;4979;51.014;6.678;2022-11-15T04:19:10;11.30;99.90
9881;DHT22;4979;51.014;6.678;2022-11-15T04:21:54;11.30;99.90
9881;DHT22;4979;51.014;6.678;2022-11-15T04:24:38;11.30;99.90
9881;DHT22;4979;51.014;6.678;2022-11-15T04:27:04;11.30;99.90
9881;DHT22;4979;51.014;6.678;2022-11-15T04:29:29;11.30;99.90
9881;DHT22;4979;51.014;6.678;2022-11-15T04:32:02;11.30;99.90
9881;DHT22;4979;51.014;6.678;2022-11-15T04:34:28;11.20;99.90
9881;DHT22;4979;51.014;6.678;2022-11-15T04:36:53;11.10;99.90
9881;DHT22;4979;51.014;6.678;2022-11-15T04:39:37;11.10;99.90
9881;DHT22;4979;51.014;6.678;2022-11-15T04:42:03;11.00;99.90
9881;DHT22;4979;51.014;6.678;2022-11-15T04:44:29;10.90;99.90
9881;DHT22;4979;51.014;6.678;2022-11-15T04:46:54;10.90;99.90
9881;DHT22;4979;51.014;6.678;2022-11-15T04:49:20;10.90;99.90
9881;DHT22;4979;51.014;6.678;2022-11-15T04:51:45;10.90;99.90
9881;DHT22;4979;51.014;6.678;2022-11-15T04:54:11;10.80;99.90
9881;DHT22;4979;51.014;6.678;2022-11-15T04:56:36;10.80;99.90
9881;DHT22;4979;51.014;6.678;2022-11-15T04:59:02;10.90;99.90
9881;DHT22;4979;51.014;6.678;2022-11-15T05:01:27;10.90;99.90
9881;DHT22;4979;51.014;6.678;2022-11-15T05:03:53;10.90;99.90
9881;DHT22;4979;51.014;6.678;2022-11-15T05:06:37;10.80;99.90
9881;DHT22;4979;51.014;6.678;2022-11-15T05:09:03;10.80;99.90
9881;DHT22;4979;51.014;6.678;2022-11-15T05:11:28;10.50;99.90
9881;DHT22;4979;51.014;6.678;2022-11-15T05:13:54;10.80;99.90
9881;DHT22;4979;51.014;6.678;2022-11-15T05:16:19;10.80;99.90
9881;DHT22;4979;51.014;6.678;2022-11-15T05:18:45;10.80;99.90
9881;DHT22;4979;51.014;6.678;2022-11-15T05:21:13;10.90;99.90
9881;DHT22;4979;51.014;6.678;2022-11-15T05:23:39;10.90;99.90
9881;DHT22;4979;51.014;6.678;2022-11-15T05:26:06;11.00;99.90
9881;DHT22;4979;51.014;6.678;2022-11-15T05:28:32;11.00;99.90
9881;DHT22;4979;51.014;6.678;2022-11-15T05:31:08;11.20;99.90
9881;DHT22;4979;51.014;6.678;2022-11-15T05:33:35;11.30;99.90
9881;DHT22;4979;51.014;6.678;2022-11-15T05:36:05;11.30;99.90
9881;DHT22;4979;51.014;6.678;2022-11-15T05:38:33;11.40;99.90
9881;DHT22;4979;51.014;6.678;2022-11-15T05:41:00;11.40;99.90
9881;DHT22;4979;51.014;6.678;2022-11-15T05:43:26;11.40;99.90
9881;DHT22;4979;51.014;6.678;2022-11-15T05:45:52;11.50;99.90
9881;DHT22;4979;51.014;6.678;2022-11-15T05:48:18;11.50;99.90
9881;DHT22;4979;51.014;6.678;2022-11-15T05:50:46;11.50;99.90
9881;DHT22;4979;51.014;6.678;2022-11-15T05:53:14;11.40;99.90
9881;DHT22;4979;51.014;6.678;2022-11-15T05:55:41;11.50;99.90
9881;DHT22;4979;51.014;6.678;2022-11-15T05:58:07;11.40;99.90
9881;DHT22;4979;51.014;6.678;2022-11-15T06:00:33;11.50;99.90
9881;DHT22;4979;51.014;6.678;2022-11-15T06:02:58;11.40;99.90
9881;DHT22;4979;51.014;6.678;2022-11-15T06:05:24;11.40;99.90
9881;DHT22;4979;51.014;6.678;2022-11-15T06:07:49;11.40;99.90
9881;DHT22;4979;51.014;6.678;2022-11-15T06:10:15;11.40;99.90
9881;DHT22;4979;51.014;6.678;2022-11-15T06:12:41;11.40;99.90
9881;DHT22;4979;51.014;6.678;2022-11-15T06:15:07;11.30;99.90
9881;DHT22;4979;51.014;6.678;2022-11-15T06:17:32;11.30;99.90
9881;DHT22;4979;51.014;6.678;2022-11-15T06:19:58;11.30;99.90
9881;DHT22;4979;51.014;6.678;2022-11-15T06:22:23;11.20;99.90
9881;DHT22;4979;51.014;6.678;2022-11-15T06:24:49;11.20;99.90
9881;DHT22;4979;51.014;6.678;2022-11-15T06:27:14;11.20;99.90
9881;DHT22;4979;51.014;6.678;2022-11-15T06:29:40;11.20;99.90
9881;DHT22;4979;51.014;6.678;2022-11-15T06:32:06;11.10;99.90
9881;DHT22;4979;51.014;6.678;2022-11-15T06:34:31;11.00;99.90
9881;DHT22;4979;51.014;6.678;2022-11-15T06:36:57;11.00;99.90
9881;DHT22;4979;51.014;6.678;2022-11-15T06:39:22;11.00;99.90
9881;DHT22;4979;51.014;6.678;2022-11-15T06:41:48;11.00;99.90
9881;DHT22;4979;51.014;6.678;2022-11-15T06:44:13;10.90;99.90
9881;DHT22;4979;51.014;6.678;2022-11-15T06:46:39;10.90;99.90
9881;DHT22;4979;51.014;6.678;2022-11-15T06:49:04;10.90;99.90
9881;DHT22;4979;51.014;6.678;2022-11-15T06:51:30;10.80;99.90
9881;DHT22;4979;51.014;6.678;2022-11-15T06:53:55;10.80;99.90
9881;DHT22;4979;51.014;6.678;2022-11-15T06:56:21;10.80;99.90
9881;DHT22;4979;51.014;6.678;2022-11-15T06:58:46;10.80;99.90
9881;DHT22;4979;51.014;6.678;2022-11-15T07:01:12;10.80;99.90
9881;DHT22;4979;51.014;6.678;2022-11-15T07:03:41;10.80;99.90
9881;DHT22;4979;51.014;6.678;2022-11-15T07:06:08;10.90;99.90
9881;DHT22;4979;51.014;6.678;2022-11-15T07:08:34;10.90;99.90
9881;DHT22;4979;51.014;6.678;2022-11-15T07:11:02;10.90;99.90
9881;DHT22;4979;51.014;6.678;2022-11-15T07:13:29;10.90;99.90
9881;DHT22;4979;51.014;6.678;2022-11-15T07:15:55;10.90;99.90
9881;DHT22;4979;51.014;6.678;2022-11-15T07:18:20;10.90;99.90
9881;DHT22;4979;51.014;6.678;2022-11-15T07:20:46;10.90;99.90
9881;DHT22;4979;51.014;6.678;2022-11-15T07:23:12;11.00;99.90
9881;DHT22;4979;51.014;6.678;2022-11-15T07:25:37;11.00;99.90
9881;DHT22;4979;51.014;6.678;2022-11-15T07:28:03;11.00;99.90
9881;DHT22;4979;51.014;6.678;2022-11-15T07:30:29;11.00;99.90
9881;DHT22;4979;51.014;6.678;2022-11-15T07:32:56;11.10;99.90
9881;DHT22;4979;51.014;6.678;2022-11-15T07:35:23;11.10;99.90
9881;DHT22;4979;51.014;6.678;2022-11-15T07:37:59;11.10;99.90
9881;DHT22;4979;51.014;6.678;2022-11-15T07:40:26;11.30;99.90
9881;DHT22;4979;51.014;6.678;2022-11-15T07:42:52;11.30;99.90
9881;DHT22;4979;51.014;6.678;2022-11-15T07:45:19;11.40;99.90
9881;DHT22;4979;51.014;6.678;2022-11-15T07:47:48;11.40;99.90
9881;DHT22;4979;51.014;6.678;2022-11-15T07:50:15;11.40;99.90
9881;DHT22;4979;51.014;6.678;2022-11-15T07:52:40;11.50;99.90
9881;DHT22;4979;51.014;6.678;2022-11-15T07:55:06;11.50;99.90
9881;DHT22;4979;51.014;6.678;2022-11-15T07:57:32;11.50;99.90
9881;DHT22;4979;51.014;6.678;2022-11-15T07:59:57;11.50;99.90
9881;DHT22;4979;51.014;6.678;2022-11-15T08:02:23;11.40;99.90
9881;DHT22;4979;51.014;6.678;2022-11-15T08:04:49;11.50;99.90
9881;DHT22;4979;51.014;6.678;2022-11-15T08:07:14;11.40;99.90
9881;DHT22;4979;51.014;6.678;2022-11-15T08:09:40;11.40;99.90
9881;DHT22;4979;51.014;6.678;2022-11-15T08:12:05;11.40;99.90
9881;DHT22;4979;51.014;6.678;2022-11-15T08:14:31;11.40;99.90
9881;DHT22;4979;51.014;6.678;2022-11-15T08:16:57;11.40;99.90
9881;DHT22;4979;51.014;6.678;2022-11-15T08:19:22;11.40;99.90
9881;DHT22;4979;51.014;6.678;2022-11-15T08:21:48;11.40;99.90
9881;DHT22;4979;51.014;6.678;2022-11-15T08:24:13;11.50;99.90
9881;DHT22;4979;51.014;6.678;2022-11-15T08:26:39;11.60;99.90
9881;DHT22;4979;51.014;6.678;2022-11-15T08:29:05;11.60;99.90
9881;DHT22;4979;51.014;6.678;2022-11-15T08:31:31;11.70;99.90
9881;DHT22;4979;51.014;6.678;2022-11-15T08:33:56;11.70;99.90
9881;DHT22;4979;51.014;6.678;2022-11-15T08:36:22;11.70;99.90
9881;DHT22;4979;51.014;6.678;2022-11-15T08:38:47;11.80;99.90
9881;DHT22;4979;51.014;6.678;2022-11-15T08:41:26;11.90;99.90
9881;DHT22;4979;51.014;6.678;2022-11-15T08:43:53;11.80;99.90
9881;DHT22;4979;51.014;6.678;2022-11-15T08:46:19;11.80;99.90
9881;DHT22;4979;51.014;6.678;2022-11-15T08:48:44;11.80;99.90
9881;DHT22;4979;51.014;6.678;2022-11-15T08:51:10;11.90;99.90
9881;DHT22;4979;51.014;6.678;2022-11-15T08:53:35;11.90;99.90
9881;DHT22;4979;51.014;6.678;2022-11-15T08:56:01;12.00;99.90
9881;DHT22;4979;51.014;6.678;2022-11-15T08:58:27;11.90;99.90
9881;DHT22;4979;51.014;6.678;2022-11-15T09:00:52;12.00;99.90
9881;DHT22;4979;51.014;6.678;2022-11-15T09:03:18;11.90;99.90
9881;DHT22;4979;51.014;6.678;2022-11-15T09:05:44;12.00;99.90
9881;DHT22;4979;51.014;6.678;2022-11-15T09:08:10;12.10;99.90
9881;DHT22;4979;51.014;6.678;2022-11-15T09:10:38;12.10;99.90
9881;DHT22;4979;51.014;6.678;2022-11-15T09:13:03;12.20;99.90
9881;DHT22;4979;51.014;6.678;2022-11-15T09:15:29;12.30;99.90
9881;DHT22;4979;51.014;6.678;2022-11-15T09:17:58;12.30;99.90
9881;DHT22;4979;51.014;6.678;2022-11-15T09:20:24;12.40;99.90
9881;DHT22;4979;51.014;6.678;2022-11-15T09:22:50;12.50;99.90
9881;DHT22;4979;51.014;6.678;2022-11-15T09:25:16;12.40;99.90
9881;DHT22;4979;51.014;6.678;2022-11-15T09:27:41;12.50;99.90
9881;DHT22;4979;51.014;6.678;2022-11-15T09:30:07;12.50;99.90
9881;DHT22;4979;51.014;6.678;2022-11-15T09:32:33;12.50;99.90
9881;DHT22;4979;51.014;6.678;2022-11-15T09:34:59;12.60;99.90
9881;DHT22;4979;51.014;6.678;2022-11-15T09:37:24;12.60;99.90
9881;DHT22;4979;51.014;6.678;2022-11-15T09:39:50;12.50;99.90
9881;DHT22;4979;51.014;6.678;2022-11-15T09:50:15;12.40;99.90
9881;DHT22;4979;51.014;6.678;2022-11-15T09:52:43;12.50;99.90
9881;DHT22;4979;51.014;6.678;2022-11-15T09:55:13;12.70;99.90
9881;DHT22;4979;51.014;6.678;2022-11-15T09:57:54;12.70;99.90
9881;DHT22;4979;51.014;6.678;2022-11-15T10:00:33;12.70;99.90
9881;DHT22;4979;51.014;6.678;2022-11-15T10:03:14;12.80;99.90
9881;DHT22;4979;51.014;6.678;2022-11-15T10:10:58;12.90;99.90
9881;DHT22;4979;51.014;6.678;2022-11-15T10:13:26;12.90;99.90
9881;DHT22;4979;51.014;6.678;2022-11-15T10:15:57;12.90;99.90
9881;DHT22;4979;51.014;6.678;2022-11-15T10:18:35;13.00;99.90
9881;DHT22;4979;51.014;6.678;2022-11-15T10:21:15;13.00;99.90
9881;DHT22;4979;51.014;6.678;2022-11-15T10:23:42;13.10;99.90
9881;DHT22;4979;51.014;6.678;2022-11-15T10:26:11;13.20;99.90
9881;DHT22;4979;51.014;6.678;2022-11-15T10:28:38;13.10;99.90
9881;DHT22;4979;51.014;6.678;2022-11-15T10:31:24;13.10;99.90
9881;DHT22;4979;51.014;6.678;2022-11-15T10:33:51;13.10;99.90
9881;DHT22;4979;51.014;6.678;2022-11-15T10:36:23;13.20;99.90
9881;DHT22;4979;51.014;6.678;2022-11-15T10:41:18;13.20;99.90
9881;DHT22;4979;51.014;6.678;2022-11-15T10:43:45;13.30;99.90
9881;DHT22;4979;51.014;6.678;2022-11-15T10:46:26;13.20;99.90
9881;DHT22;4979;51.014;6.678;2022-11-15T10:48:52;13.20;99.90
9881;DHT22;4979;51.014;6.678;2022-11-15T10:51:27;13.20;99.90
9881;DHT22;4979;51.014;6.678;2022-11-15T10:53:57;13.30;99.90
9881;DHT22;4979;51.014;6.678;2022-11-15T10:56:25;13.30;99.90
9881;DHT22;4979;51.014;6.678;2022-11-15T10:58:54;13.30;99.90
9881;DHT22;4979;51.014;6.678;2022-11-15T11:01:26;13.40;99.90
9881;DHT22;4979;51.014;6.678;2022-11-15T11:04:04;13.40;99.90
9881;DHT22;4979;51.014;6.678;2022-11-15T11:06:32;13.40;99.90
9881;DHT22;4979;51.014;6.678;2022-11-15T11:09:28;13.50;99.90
9881;DHT22;4979;51.014;6.678;2022-11-15T11:11:56;13.50;99.90
9881;DHT22;4979;51.014;6.678;2022-11-15T11:14:33;13.60;99.90
9881;DHT22;4979;51.014;6.678;2022-11-15T11:17:18;13.50;99.90
9881;DHT22;4979;51.014;6.678;2022-11-15T11:22:25;13.30;99.90
9881;DHT22;4979;51.014;6.678;2022-11-15T11:27:44;13.50;99.90
9881;DHT22;4979;51.014;6.678;2022-11-15T11:30:23;13.60;99.90
9881;DHT22;4979;51.014;6.678;2022-11-15T11:33:07;13.60;99.90
9881;DHT22;4979;51.014;6.678;2022-11-15T11:35:46;13.60;99.90
9881;DHT22;4979;51.014;6.678;2022-11-15T11:49:46;13.60;99.90
9881;DHT22;4979;51.014;6.678;2022-11-15T11:52:17;13.60;99.90
9881;DHT22;4979;51.014;6.678;2022-11-15T11:55:05;13.60;99.90
9881;DHT22;4979;51.014;6.678;2022-11-15T11:57:49;13.50;99.90
9881;DHT22;4979;51.014;6.678;2022-11-15T12:00:21;13.50;99.90
9881;DHT22;4979;51.014;6.678;2022-11-15T12:03:03;13.60;99.90
9881;DHT22;4979;51.014;6.678;2022-11-15T12:05:35;13.60;99.90
9881;DHT22;4979;51.014;6.678;2022-11-15T12:08:27;13.70;99.90
9881;DHT22;4979;51.014;6.678;2022-11-15T12:11:13;13.70;99.90
9881;DHT22;4979;51.014;6.678;2022-11-15T12:13:40;13.80;99.90
9881;DHT22;4979;51.014;6.678;2022-11-15T12:16:14;13.90;99.90
9881;DHT22;4979;51.014;6.678;2022-11-15T12:18:47;13.90;99.90
9881;DHT22;4979;51.014;6.678;2022-11-15T12:21:24;13.90;99.90
9881;DHT22;4979;51.014;6.678;2022-11-15T12:23:59;13.80;99.90
9881;DHT22;4979;51.014;6.678;2022-11-15T12:26:31;13.70;99.90
9881;DHT22;4979;51.014;6.678;2022-11-15T12:29:20;13.80;99.90
9881;DHT22;4979;51.014;6.678;2022-11-15T12:31:50;14.00;99.90
9881;DHT22;4979;51.014;6.678;2022-11-15T12:36:47;14.10;99.90
9881;DHT22;4979;51.014;6.678;2022-11-15T12:39:13;14.10;99.90
9881;DHT22;4979;51.014;6.678;2022-11-15T12:41:45;14.10;99.90
9881;DHT22;4979;51.014;6.678;2022-11-15T12:47:21;13.90;99.90
9881;DHT22;4979;51.014;6.678;2022-11-15T12:49:47;13.80;99.90
9881;DHT22;4979;51.014;6.678;2022-11-15T12:52:14;13.70;99.90
9881;DHT22;4979;51.014;6.678;2022-11-15T13:02:43;13.60;99.90
9881;DHT22;4979;51.014;6.678;2022-11-15T13:17:43;13.60;99.90
9881;DHT22;4979;51.014;6.678;2022-11-15T13:22:40;13.60;99.90
9881;DHT22;4979;51.014;6.678;2022-11-15T13:34:01;13.70;99.90
9881;DHT22;4979;51.014;6.678;2022-11-15T13:36:30;13.70;99.90
9881;DHT22;4979;51.014;6.678;2022-11-15T13:39:05;13.70;99.90
9881;DHT22;4979;51.014;6.678;2022-11-15T13:41:35;13.70;99.90
9881;DHT22;4979;51.014;6.678;2022-11-15T13:44:02;13.70;99.90
9881;DHT22;4979;51.014;6.678;2022-11-15T13:46:30;13.70;99.90
9881;DHT22;4979;51.014;6.678;2022-11-15T13:49:02;13.70;99.90
9881;DHT22;4979;51.014;6.678;2022-11-15T13:51:36;13.70;99.90
9881;DHT22;4979;51.014;6.678;2022-11-15T13:54:20;13.70;99.90
9881;DHT22;4979;51.014;6.678;2022-11-15T13:56:54;13.70;99.90
9881;DHT22;4979;51.014;6.678;2022-11-15T13:59:33;13.70;99.90
9881;DHT22;4979;51.014;6.678;2022-11-15T14:02:03;13.70;99.90
9881;DHT22;4979;51.014;6.678;2022-11-15T14:04:38;13.70;99.90
9881;DHT22;4979;51.014;6.678;2022-11-15T14:07:04;13.60;99.90
9881;DHT22;4979;51.014;6.678;2022-11-15T14:09:39;13.60;99.90
9881;DHT22;4979;51.014;6.678;2022-11-15T14:12:33;13.60;99.90
9881;DHT22;4979;51.014;6.678;2022-11-15T14:15:45;13.50;99.90
9881;DHT22;4979;51.014;6.678;2022-11-15T14:17:45;13.50;99.90
9881;DHT22;4979;51.014;6.678;2022-11-15T14:22:54;13.50;99.90
9881;DHT22;4979;51.014;6.678;2022-11-15T14:25:30;13.50;99.90
9881;DHT22;4979;51.014;6.678;2022-11-15T14:28:15;13.50;99.90
9881;DHT22;4979;51.014;6.678;2022-11-15T14:30:42;13.50;99.90
9881;DHT22;4979;51.014;6.678;2022-11-15T14:33:28;13.40;99.90
9881;DHT22;4979;51.014;6.678;2022-11-15T14:35:55;13.50;99.90
9881;DHT22;4979;51.014;6.678;2022-11-15T14:38:23;13.50;99.90
9881;DHT22;4979;51.014;6.678;2022-11-15T14:40:49;13.50;99.90
9881;DHT22;4979;51.014;6.678;2022-11-15T14:43:15;13.40;99.90
9881;DHT22;4979;51.014;6.678;2022-11-15T14:45:40;13.40;99.90
9881;DHT22;4979;51.014;6.678;2022-11-15T14:48:06;13.40;99.90
9881;DHT22;4979;51.014;6.678;2022-11-15T14:50:33;13.40;99.90
9881;DHT22;4979;51.014;6.678;2022-11-15T14:52:59;13.30;99.90
9881;DHT22;4979;51.014;6.678;2022-11-15T14:55:27;13.40;99.90
9881;DHT22;4979;51.014;6.678;2022-11-15T14:57:54;13.30;99.90
9881;DHT22;4979;51.014;6.678;2022-11-15T15:00:21;13.30;99.90
9881;DHT22;4979;51.014;6.678;2022-11-15T15:02:48;13.30;99.90
9881;DHT22;4979;51.014;6.678;2022-11-15T15:05:20;13.20;99.90
9881;DHT22;4979;51.014;6.678;2022-11-15T15:07:46;13.20;99.90
9881;DHT22;4979;51.014;6.678;2022-11-15T15:10:13;13.10;99.90
9881;DHT22;4979;51.014;6.678;2022-11-15T15:12:38;13.10;99.90
9881;DHT22;4979;51.014;6.678;2022-11-15T15:15:05;13.10;99.90
9881;DHT22;4979;51.014;6.678;2022-11-15T15:17:31;13.00;99.90
9881;DHT22;4979;51.014;6.678;2022-11-15T15:19:56;13.00;99.90
9881;DHT22;4979;51.014;6.678;2022-11-15T15:22:22;13.00;99.90
9881;DHT22;4979;51.014;6.678;2022-11-15T15:24:51;12.90;99.90
9881;DHT22;4979;51.014;6.678;2022-11-15T15:27:17;12.90;99.90
9881;DHT22;4979;51.014;6.678;2022-11-15T15:29:42;12.90;99.90
9881;DHT22;4979;51.014;6.678;2022-11-15T15:32:09;12.90;99.90
9881;DHT22;4979;51.014;6.678;2022-11-15T15:34:36;12.90;99.90
9881;DHT22;4979;51.014;6.678;2022-11-15T15:37:23;12.90;99.90
9881;DHT22;4979;51.014;6.678;2022-11-15T15:39:53;12.80;99.90
9881;DHT22;4979;51.014;6.678;2022-11-15T15:42:20;12.80;99.90
9881;DHT22;4979;51.014;6.678;2022-11-15T15:44:49;12.80;99.90
9881;DHT22;4979;51.014;6.678;2022-11-15T15:47:20;12.80;99.90
9881;DHT22;4979;51.014;6.678;2022-11-15T15:49:47;12.80;99.90
9881;DHT22;4979;51.014;6.678;2022-11-15T15:52:13;12.80;99.90
9881;DHT22;4979;51.014;6.678;2022-11-15T15:54:39;12.80;99.90
9881;DHT22;4979;51.014;6.678;2022-11-15T15:57:05;12.80;99.90
9881;DHT22;4979;51.014;6.678;2022-11-15T15:59:31;12.80;99.90
9881;DHT22;4979;51.014;6.678;2022-11-15T16:01:57;12.80;99.90
9881;DHT22;4979;51.014;6.678;2022-11-15T16:04:23;12.80;99.90
9881;DHT22;4979;51.014;6.678;2022-11-15T16:06:48;12.80;99.90
9881;DHT22;4979;51.014;6.678;2022-11-15T16:09:17;12.80;99.90
9881;DHT22;4979;51.014;6.678;2022-11-15T16:11:46;12.80;99.90
9881;DHT22;4979;51.014;6.678;2022-11-15T16:14:12;12.80;99.90
9881;DHT22;4979;51.014;6.678;2022-11-15T16:16:38;12.80;99.90
9881;DHT22;4979;51.014;6.678;2022-11-15T16:19:04;12.80;99.90
9881;DHT22;4979;51.014;6.678;2022-11-15T16:21:30;12.80;99.90
9881;DHT22;4979;51.014;6.678;2022-11-15T16:23:56;12.80;99.90
9881;DHT22;4979;51.014;6.678;2022-11-15T16:26:27;12.80;99.90
9881;DHT22;4979;51.014;6.678;2022-11-15T16:28:53;12.90;99.90
9881;DHT22;4979;51.014;6.678;2022-11-15T16:31:19;12.80;99.90
9881;DHT22;4979;51.014;6.678;2022-11-15T16:33:47;12.90;99.90
9881;DHT22;4979;51.014;6.678;2022-11-15T16:36:32;12.90;99.90
9881;DHT22;4979;51.014;6.678;2022-11-15T16:38:59;12.80;99.90
9881;DHT22;4979;51.014;6.678;2022-11-15T16:41:25;12.90;99.90
9881;DHT22;4979;51.014;6.678;2022-11-15T16:43:51;12.90;99.90
9881;DHT22;4979;51.014;6.678;2022-11-15T16:46:24;12.90;99.90
9881;DHT22;4979;51.014;6.678;2022-11-15T16:48:51;12.90;99.90
9881;DHT22;4979;51.014;6.678;2022-11-15T16:51:18;12.80;99.90
9881;DHT22;4979;51.014;6.678;2022-11-15T16:53:44;12.80;99.90
9881;DHT22;4979;51.014;6.678;2022-11-15T16:56:21;12.80;99.90
9881;DHT22;4979;51.014;6.678;2022-11-15T16:58:47;12.80;99.90
9881;DHT22;4979;51.014;6.678;2022-11-15T17:01:18;12.80;99.90
9881;DHT22;4979;51.014;6.678;2022-11-15T17:03:44;12.80;99.90
9881;DHT22;4979;51.014;6.678;2022-11-15T17:06:10;12.80;99.90
9881;DHT22;4979;51.014;6.678;2022-11-15T17:08:36;12.80;99.90
9881;DHT22;4979;51.014;6.678;2022-11-15T17:11:06;12.80;99.90
9881;DHT22;4979;51.014;6.678;2022-11-15T17:13:32;12.80;99.90
9881;DHT22;4979;51.014;6.678;2022-11-15T17:16:09;12.80;99.90
9881;DHT22;4979;51.014;6.678;2022-11-15T17:18:35;12.80;99.90
9881;DHT22;4979;51.014;6.678;2022-11-15T17:21:12;12.70;99.90
9881;DHT22;4979;51.014;6.678;2022-11-15T17:23:38;12.70;99.90
9881;DHT22;4979;51.014;6.678;2022-11-15T17:26:04;12.70;99.90
9881;DHT22;4979;51.014;6.678;2022-11-15T17:28:33;12.70;99.90
9881;DHT22;4979;51.014;6.678;2022-11-15T17:31:00;12.70;99.90
9881;DHT22;4979;51.014;6.678;2022-11-15T17:33:26;12.70;99.90
9881;DHT22;4979;51.014;6.678;2022-11-15T17:36:00;12.60;99.90
9881;DHT22;4979;51.014;6.678;2022-11-15T17:38:26;12.60;99.90
9881;DHT22;4979;51.014;6.678;2022-11-15T17:41:13;12.50;99.90
9881;DHT22;4979;51.014;6.678;2022-11-15T17:43:39;12.50;99.90
9881;DHT22;4979;51.014;6.678;2022-11-15T17:46:07;12.50;99.90
9881;DHT22;4979;51.014;6.678;2022-11-15T17:48:33;12.50;99.90